Time;durP1;ratioP1;P1;durP2;ratioP2;P2;SDS_P1;SDS_P2;PMS_P1;PMS_P2;Temp;Humidity;BMP_temperature;BMP_pressure;BME280_temperature;BME280_humidity;BME280_pressure;Samples;Min_cycle;Max_cycle;Signal;HPM_P1;HPM_P2
2021/03/09 00:01:10;;;;;;;12.23;7.07;;;2.20;63.30;;;;;;4997928;28;21585;-64
2021/03/09 00:03:40;;;;;;;11.70;7.05;;;2.20;63.30;;;;;;4999788;28;20137;-64
2021/03/09 00:06:10;;;;;;;13.23;7.28;;;2.20;63.30;;;;;;4999433;28;20037;-64
2021/03/09 00:08:36;;;;;;;14.57;7.32;;;2.20;63.50;;;;;;4997399;28;20031;-64
2021/03/09 00:11:02;;;;;;;9.93;6.93;;;2.20;63.30;;;;;;4996606;28;20408;-64
2021/03/09 00:13:32;;;;;;;12.55;7.57;;;2.20;63.40;;;;;;4998656;28;20037;-64
2021/03/09 00:16:02;;;;;;;11.07;6.80;;;2.20;63.60;;;;;;4998456;28;20078;-64
2021/03/09 00:18:28;;;;;;;13.35;8.02;;;2.20;63.50;;;;;;4993337;28;20034;-64
2021/03/09 00:21:00;;;;;;;12.05;7.22;;;2.20;64.00;;;;;;4998430;28;20041;-64
2021/03/09 00:23:26;;;;;;;14.55;8.40;;;2.30;64.20;;;;;;4998214;28;20030;-64
2021/03/09 00:25:56;;;;;;;13.15;8.18;;;2.10;64.00;;;;;;4998105;28;20044;-64
2021/03/09 00:28:24;;;;;;;11.60;7.07;;;2.20;64.40;;;;;;4995650;28;20576;-64
2021/03/09 00:30:54;;;;;;;12.50;7.32;;;2.10;64.40;;;;;;5002571;28;20129;-64
2021/03/09 00:33:22;;;;;;;12.30;7.22;;;2.10;64.60;;;;;;4997752;28;20038;-62
2021/03/09 00:35:48;;;;;;;13.70;7.13;;;2.10;64.40;;;;;;4996297;28;20050;-64
2021/03/09 00:38:15;;;;;;;12.52;7.53;;;2.00;64.10;;;;;;5003730;28;20038;-64
2021/03/09 00:40:43;;;;;;;12.50;7.28;;;2.10;64.20;;;;;;4997691;28;20552;-64
2021/03/09 00:43:11;;;;;;;13.88;8.32;;;2.00;64.20;;;;;;4995382;28;20484;-64
2021/03/09 00:45:39;;;;;;;12.88;8.00;;;2.00;64.60;;;;;;4998036;28;20034;-64
2021/03/09 00:48:05;;;;;;;13.48;8.05;;;2.00;64.70;;;;;;4994552;28;20516;-64
2021/03/09 00:50:33;;;;;;;12.55;7.40;;;2.00;64.70;;;;;;4999446;28;20045;-63
2021/03/09 00:53:01;;;;;;;14.88;7.47;;;2.00;65.10;;;;;;5001144;28;20039;-64
2021/03/09 00:55:29;;;;;;;11.02;7.03;;;2.00;65.80;;;;;;4999521;28;20033;-64
2021/03/09 00:58:01;;;;;;;12.43;7.05;;;1.90;64.70;;;;;;5004060;28;20037;-64
2021/03/09 01:00:32;;;;;;;10.25;7.10;;;2.00;64.90;;;;;;5000002;28;20034;-64
2021/03/09 01:03:00;;;;;;;14.68;7.13;;;2.00;64.90;;;;;;5001850;28;20408;-64
2021/03/09 01:05:26;;;;;;;14.98;7.45;;;2.00;64.80;;;;;;5000523;28;20559;-64
2021/03/09 01:07:54;;;;;;;14.65;7.50;;;1.90;64.70;;;;;;5001200;28;20033;-64
2021/03/09 01:10:25;;;;;;;14.60;7.72;;;1.90;64.70;;;;;;5000756;28;20034;-64
2021/03/09 01:12:55;;;;;;;14.32;7.90;;;1.90;65.00;;;;;;4999754;28;20068;-64
2021/03/09 01:15:23;;;;;;;11.30;7.43;;;1.90;64.90;;;;;;5007176;28;20409;-64
2021/03/09 01:17:49;;;;;;;13.73;7.18;;;1.90;64.90;;;;;;4999492;28;20026;-64
2021/03/09 01:20:19;;;;;;;13.48;7.90;;;1.90;64.80;;;;;;5000448;28;20449;-64
2021/03/09 01:22:45;;;;;;;12.95;7.40;;;2.00;65.10;;;;;;4999377;28;20026;-64
2021/03/09 01:25:13;;;;;;;11.38;7.03;;;1.90;64.90;;;;;;5001163;28;20057;-64
2021/03/09 01:27:41;;;;;;;12.98;7.15;;;1.90;65.00;;;;;;4998548;28;20169;-64
2021/03/09 01:30:15;;;;;;;10.98;6.93;;;1.90;64.90;;;;;;4999468;28;20121;-64
2021/03/09 01:32:45;;;;;;;12.63;6.90;;;1.90;65.00;;;;;;4995761;28;20037;-64
2021/03/09 01:35:11;;;;;;;11.30;7.13;;;1.90;64.90;;;;;;4999928;28;20493;-64
2021/03/09 01:37:36;;;;;;;11.45;7.28;;;1.90;64.80;;;;;;5016377;28;20049;-64
2021/03/09 01:40:10;;;;;;;11.30;6.93;;;1.90;64.70;;;;;;5013282;28;20041;-64
2021/03/09 01:42:40;;;;;;;11.90;7.05;;;1.90;64.90;;;;;;4999152;28;20030;-64
2021/03/09 01:45:09;;;;;;;12.00;7.35;;;1.90;64.80;;;;;;5001118;28;20039;-63
2021/03/09 01:47:41;;;;;;;12.80;6.88;;;1.90;64.70;;;;;;4996069;28;20041;-64
2021/03/09 01:50:08;;;;;;;13.57;6.97;;;1.90;65.10;;;;;;5000333;28;20036;-65
2021/03/09 01:52:36;;;;;;;11.45;6.57;;;1.90;64.90;;;;;;5001073;28;20046;-64
2021/03/09 01:55:07;;;;;;;9.63;6.53;;;1.90;64.90;;;;;;4999315;28;20038;-62
2021/03/09 01:57:34;;;;;;;9.10;6.43;;;1.90;64.90;;;;;;5003236;28;20030;-64
2021/03/09 02:00:03;;;;;;;9.88;6.45;;;1.90;64.90;;;;;;4999541;28;20031;-64
2021/03/09 02:02:31;;;;;;;10.82;6.70;;;1.90;64.90;;;;;;4998956;28;20551;-64
2021/03/09 02:05:04;;;;;;;10.73;6.90;;;1.80;65.00;;;;;;4998751;28;20042;-64
2021/03/09 02:07:36;;;;;;;13.35;7.63;;;1.80;64.90;;;;;;4998125;28;20472;-64
2021/03/09 02:10:07;;;;;;;16.48;7.43;;;1.80;65.10;;;;;;5000116;28;20034;-64
2021/03/09 02:13:23;;;;;;;12.25;7.05;;;1.80;65.10;;;;;;4996505;28;20041;-64
2021/03/09 02:15:59;;;;;;;13.90;7.80;;;1.80;65.80;;;;;;4996787;28;20041;-63
2021/03/09 02:18:52;;;;;;;12.07;7.00;;;1.80;65.40;;;;;;5014724;28;20034;-64
2021/03/09 02:21:36;;;;;;;12.45;7.38;;;1.80;65.80;;;;;;5000974;28;20038;-65
2021/03/09 02:24:17;;;;;;;12.38;7.60;;;1.70;65.60;;;;;;4998743;28;20033;-64
2021/03/09 02:27:03;;;;;;;12.10;7.13;;;1.70;65.40;;;;;;5005362;28;20113;-64
2021/03/09 02:29:43;;;;;;;12.88;7.28;;;1.80;65.60;;;;;;4999154;28;20035;-64
2021/03/09 02:32:24;;;;;;;12.57;7.65;;;1.70;65.20;;;;;;4997969;28;20034;-64
2021/03/09 02:34:54;;;;;;;11.65;7.72;;;1.70;65.80;;;;;;4997655;28;20029;-64
2021/03/09 02:37:22;;;;;;;14.15;7.57;;;1.70;65.40;;;;;;5010901;28;20105;-64
2021/03/09 02:39:51;;;;;;;12.23;7.72;;;1.70;65.40;;;;;;4996977;28;20061;-64
2021/03/09 02:42:26;;;;;;;12.55;8.00;;;1.70;65.60;;;;;;4994897;28;20034;-65
2021/03/09 02:45:02;;;;;;;12.88;8.20;;;1.60;65.80;;;;;;4996725;28;20138;-64
2021/03/09 02:47:30;;;;;;;12.38;7.38;;;1.70;66.00;;;;;;4996903;28;20046;-64
2021/03/09 02:50:01;;;;;;;13.05;8.07;;;1.70;65.60;;;;;;5004815;28;20091;-64
2021/03/09 02:52:28;;;;;;;12.48;7.35;;;1.60;65.60;;;;;;4996503;28;20038;-61
2021/03/09 02:55:00;;;;;;;13.48;7.90;;;1.60;65.70;;;;;;4997264;28;20600;-64
2021/03/09 02:57:27;;;;;;;12.75;7.72;;;1.60;65.70;;;;;;4994261;28;20038;-64
2021/03/09 02:59:58;;;;;;;11.60;7.03;;;1.60;65.60;;;;;;4999507;28;20133;-64
2021/03/09 03:02:29;;;;;;;14.23;8.07;;;1.60;65.70;;;;;;4999390;28;20056;-65
2021/03/09 03:04:58;;;;;;;13.25;8.00;;;1.60;65.60;;;;;;4998040;28;20042;-64
2021/03/09 03:07:26;;;;;;;12.02;7.72;;;1.60;65.80;;;;;;4996662;28;20038;-64
2021/03/09 03:09:52;;;;;;;12.52;8.02;;;1.60;65.80;;;;;;4998912;28;20034;-65
2021/03/09 03:12:17;;;;;;;14.02;7.72;;;1.60;65.80;;;;;;4995468;28;20202;-64
2021/03/09 03:14:46;;;;;;;12.27;7.72;;;1.60;65.60;;;;;;4996793;28;21900;-64
2021/03/09 03:17:16;;;;;;;12.80;7.72;;;1.60;65.50;;;;;;4997805;28;20666;-64
2021/03/09 03:19:46;;;;;;;12.13;7.43;;;1.50;65.30;;;;;;4998788;28;20532;-64
2021/03/09 03:22:18;;;;;;;10.63;7.35;;;1.50;65.50;;;;;;4997828;28;20038;-64
2021/03/09 03:24:49;;;;;;;13.05;7.68;;;1.50;65.60;;;;;;4997306;28;20440;-65
2021/03/09 03:27:20;;;;;;;13.75;8.15;;;1.50;66.40;;;;;;5002263;28;20030;-64
2021/03/09 03:29:51;;;;;;;13.77;7.80;;;1.40;65.70;;;;;;4998090;28;20038;-64
2021/03/09 03:32:17;;;;;;;11.40;6.93;;;1.40;65.80;;;;;;4996925;28;20058;-65
2021/03/09 03:34:45;;;;;;;12.75;7.80;;;1.40;65.70;;;;;;5004405;28;20089;-64
2021/03/09 03:37:17;;;;;;;14.30;8.20;;;1.40;65.80;;;;;;4998366;28;20121;-65
2021/03/09 03:39:43;;;;;;;13.30;7.97;;;1.40;65.70;;;;;;4999066;28;20050;-65
2021/03/09 03:42:12;;;;;;;14.65;7.88;;;1.30;65.50;;;;;;4999318;28;20092;-64
2021/03/09 03:44:39;;;;;;;12.27;7.68;;;1.30;65.50;;;;;;4997146;28;20125;-64
2021/03/09 03:47:08;;;;;;;14.57;8.25;;;1.30;65.60;;;;;;4998300;28;20038;-64
2021/03/09 03:49:38;;;;;;;13.95;8.50;;;1.20;65.60;;;;;;4998256;28;20414;-64
2021/03/09 03:52:16;;;;;;;14.00;8.75;;;1.20;65.80;;;;;;4997817;28;20030;-65
2021/03/09 03:54:59;;;;;;;13.98;8.50;;;1.20;66.20;;;;;;4998088;28;20034;-64
2021/03/09 03:57:31;;;;;;;12.90;8.15;;;1.10;66.50;;;;;;4996987;28;20061;-64
2021/03/09 04:00:01;;;;;;;12.30;8.02;;;1.10;66.00;;;;;;4997266;28;20042;-64
2021/03/09 04:02:32;;;;;;;13.32;8.32;;;1.10;66.30;;;;;;4997569;28;20113;-65
2021/03/09 04:05:03;;;;;;;14.95;8.55;;;1.00;66.30;;;;;;4996012;28;20054;-65
2021/03/09 04:07:32;;;;;;;16.38;9.13;;;1.00;66.20;;;;;;4996487;28;20038;-64
2021/03/09 04:09:58;;;;;;;15.70;8.13;;;1.00;66.20;;;;;;4998374;28;20390;-65
2021/03/09 04:12:27;;;;;;;13.07;8.48;;;1.00;66.20;;;;;;4991414;28;20048;-64
2021/03/09 04:15:01;;;;;;;14.90;8.23;;;1.00;66.30;;;;;;4998474;28;20100;-65
2021/03/09 04:17:27;;;;;;;13.90;8.18;;;1.00;66.40;;;;;;4992132;28;20533;-65
2021/03/09 04:19:59;;;;;;;15.45;8.77;;;1.00;66.30;;;;;;4997401;28;20050;-64
2021/03/09 04:22:30;;;;;;;13.32;7.97;;;0.90;66.30;;;;;;4996391;28;20030;-65
2021/03/09 04:24:58;;;;;;;14.73;8.60;;;0.90;66.20;;;;;;4995488;28;20042;-65
2021/03/09 04:27:23;;;;;;;13.05;8.60;;;0.90;66.10;;;;;;5001853;28;20501;-64
2021/03/09 04:29:59;;;;;;;14.23;8.40;;;0.90;66.10;;;;;;5006802;28;20040;-64
2021/03/09 04:32:28;;;;;;;15.95;8.77;;;0.90;66.30;;;;;;5000349;28;20030;-64
2021/03/09 04:34:58;;;;;;;13.93;8.70;;;0.90;66.20;;;;;;5000819;28;20053;-64
2021/03/09 04:37:28;;;;;;;14.68;9.43;;;0.90;66.30;;;;;;4996057;28;20039;-64
2021/03/09 04:39:54;;;;;;;15.13;9.65;;;0.90;66.40;;;;;;4999562;28;20041;-64
2021/03/09 04:42:24;;;;;;;15.43;9.13;;;0.80;66.10;;;;;;4999052;28;20038;-69
2021/03/09 04:44:51;;;;;;;14.27;8.70;;;0.80;66.30;;;;;;4997934;28;20038;-64
2021/03/09 04:47:22;;;;;;;16.00;8.73;;;0.80;66.10;;;;;;4999547;28;20046;-64
2021/03/09 04:49:54;;;;;;;13.57;8.70;;;0.70;66.10;;;;;;4997754;28;20580;-64
2021/03/09 04:52:21;;;;;;;15.77;9.30;;;0.70;66.40;;;;;;4998227;28;20159;-64
2021/03/09 04:54:49;;;;;;;13.55;8.35;;;0.70;66.30;;;;;;5001938;28;20501;-65
2021/03/09 04:57:15;;;;;;;17.33;10.30;;;0.60;66.10;;;;;;5000298;28;20125;-64
2021/03/09 04:59:45;;;;;;;18.70;9.55;;;0.60;66.30;;;;;;5004305;28;20132;-64
2021/03/09 05:02:16;;;;;;;16.05;9.93;;;0.60;66.60;;;;;;4999212;28;20117;-65
2021/03/09 05:04:44;;;;;;;16.90;9.93;;;0.50;66.30;;;;;;5000116;28;20065;-64
2021/03/09 05:07:14;;;;;;;16.27;9.70;;;0.50;66.50;;;;;;5001380;28;20124;-65
2021/03/09 05:09:44;;;;;;;17.42;10.30;;;0.50;66.70;;;;;;5000964;28;20034;-64
2021/03/09 05:12:14;;;;;;;17.90;10.25;;;0.50;66.60;;;;;;4998130;28;20038;-64
2021/03/09 05:14:40;;;;;;;15.57;9.82;;;0.50;66.70;;;;;;4999404;28;20026;-65
2021/03/09 05:17:08;;;;;;;17.10;9.80;;;0.40;66.60;;;;;;4998225;28;20041;-65
2021/03/09 05:19:40;;;;;;;32.00;15.68;;;0.40;66.60;;;;;;4998797;28;20457;-65
2021/03/09 05:22:06;;;;;;;45.33;22.20;;;0.40;66.80;;;;;;4998843;28;20034;-65
2021/03/09 05:24:35;;;;;;;65.88;30.63;;;0.40;66.80;;;;;;4997627;28;20053;-64
2021/03/09 05:27:04;;;;;;;64.38;30.45;;;0.40;66.80;;;;;;4999278;28;20038;-65
2021/03/09 05:29:32;;;;;;;52.72;25.20;;;0.40;66.80;;;;;;4999319;28;20030;-64
2021/03/09 05:31:57;;;;;;;40.88;20.90;;;0.40;66.90;;;;;;5003348;28;20042;-64
2021/03/09 05:34:25;;;;;;;37.10;18.75;;;0.30;66.70;;;;;;4998239;28;20069;-64
2021/03/09 05:36:56;;;;;;;28.52;16.35;;;0.30;66.70;;;;;;4988690;28;20077;-63
2021/03/09 05:39:24;;;;;;;24.73;14.35;;;0.30;67.00;;;;;;4990493;28;20168;-64
2021/03/09 05:41:54;;;;;;;24.25;13.05;;;0.20;66.90;;;;;;5000797;28;20049;-65
2021/03/09 05:44:25;;;;;;;21.02;11.65;;;0.20;66.90;;;;;;4998992;28;20497;-64
2021/03/09 05:46:53;;;;;;;22.15;12.52;;;0.20;67.00;;;;;;4999164;28;20726;-65
2021/03/09 05:49:24;;;;;;;21.60;12.27;;;0.20;67.00;;;;;;5000491;28;20076;-65
2021/03/09 05:51:54;;;;;;;21.10;11.55;;;0.20;67.10;;;;;;5001374;28;20065;-64
2021/03/09 05:54:26;;;;;;;27.52;12.23;;;0.10;67.20;;;;;;5000545;28;20576;-65
2021/03/09 05:56:57;;;;;;;21.42;11.68;;;0.10;67.40;;;;;;4999924;28;20038;-65
2021/03/09 05:59:27;;;;;;;20.25;11.50;;;0.00;67.50;;;;;;5000345;28;20038;-64
2021/03/09 06:01:56;;;;;;;22.80;12.40;;;0.00;67.60;;;;;;4998785;28;20178;-65
2021/03/09 06:04:21;;;;;;;22.33;11.93;;;0.00;67.60;;;;;;4996346;28;20030;-65
2021/03/09 06:06:47;;;;;;;24.60;12.65;;;-0.10;67.70;;;;;;4996548;28;20090;-65
2021/03/09 06:09:37;;;;;;;22.63;12.80;;;-0.10;67.80;;;;;;4997888;28;20027;-62
2021/03/09 06:12:15;;;;;;;22.42;12.15;;;-0.10;68.70;;;;;;4997631;28;20564;-64
2021/03/09 06:14:59;;;;;;;23.25;12.07;;;-0.10;68.30;;;;;;4999239;28;20046;-65
2021/03/09 06:17:37;;;;;;;25.25;13.07;;;-0.10;68.70;;;;;;4998177;28;20029;-65
2021/03/09 06:20:06;;;;;;;26.48;12.20;;;-0.10;68.20;;;;;;4998837;28;20034;-64
2021/03/09 06:22:44;;;;;;;23.13;11.57;;;-0.10;68.20;;;;;;4999219;28;20034;-65
2021/03/09 06:25:16;;;;;;;25.50;11.73;;;-0.10;68.70;;;;;;4999999;28;20066;-65
2021/03/09 06:27:46;;;;;;;28.35;11.90;;;-0.10;68.50;;;;;;4998803;28;20658;-65
2021/03/09 06:30:20;;;;;;;34.83;15.90;;;-0.10;68.60;;;;;;4998813;28;20531;-64
2021/03/09 06:32:46;;;;;;;32.60;16.48;;;0.00;68.60;;;;;;4999975;28;20042;-64
2021/03/09 06:35:37;;;;;;;40.45;18.20;;;0.00;68.60;;;;;;5003252;28;20553;-64
2021/03/09 06:38:20;;;;;;;31.75;15.77;;;0.00;69.30;;;;;;5000164;28;20045;-64
2021/03/09 06:41:10;;;;;;;41.60;16.10;;;0.00;69.30;;;;;;4999110;28;20035;-64
2021/03/09 06:43:39;;;;;;;33.67;14.85;;;0.10;69.40;;;;;;4999940;28;20117;-64
2021/03/09 06:46:22;;;;;;;27.23;15.45;;;0.10;68.90;;;;;;4998985;28;20109;-65
2021/03/09 06:49:00;;;;;;;30.13;18.15;;;0.10;69.60;;;;;;4995819;28;20129;-64
2021/03/09 06:51:33;;;;;;;30.30;17.05;;;0.20;69.40;;;;;;4997499;28;20172;-64
2021/03/09 06:54:06;;;;;;;33.05;16.75;;;0.20;69.40;;;;;;5000093;28;20038;-64
2021/03/09 06:56:45;;;;;;;33.83;16.23;;;0.20;69.40;;;;;;4996041;28;20121;-64
2021/03/09 06:59:27;;;;;;;31.27;16.73;;;0.30;69.70;;;;;;4999579;28;20041;-64
2021/03/09 07:02:21;;;;;;;28.20;16.45;;;0.30;70.40;;;;;;4997864;28;20061;-64
2021/03/09 07:04:53;;;;;;;27.33;14.05;;;0.40;71.00;;;;;;4999064;28;20040;-64
2021/03/09 07:07:30;;;;;;;28.15;14.27;;;0.50;70.60;;;;;;4998599;28;20058;-65
2021/03/09 07:10:06;;;;;;;24.80;13.63;;;0.50;71.00;;;;;;4999648;28;20030;-65
2021/03/09 07:12:33;;;;;;;25.73;14.00;;;0.60;70.90;;;;;;4995886;28;20038;-65
2021/03/09 07:15:04;;;;;;;23.45;13.88;;;0.70;70.70;;;;;;4998626;28;20043;-64
2021/03/09 07:17:36;;;;;;;29.45;14.00;;;0.80;71.30;;;;;;4999203;28;20042;-64
2021/03/09 07:20:08;;;;;;;27.05;14.93;;;0.80;71.20;;;;;;5003944;28;20160;-65
2021/03/09 07:22:36;;;;;;;24.20;13.93;;;0.90;72.10;;;;;;4996300;28;20030;-64
2021/03/09 07:25:04;;;;;;;23.50;13.48;;;1.00;71.90;;;;;;4999541;28;20113;-64
2021/03/09 07:28:03;;;;;;;22.08;13.00;;;1.00;71.70;;;;;;5000309;28;20048;-65
2021/03/09 07:30:34;;;;;;;26.63;14.80;;;1.10;72.90;;;;;;5001156;28;20404;-64
2021/03/09 07:33:02;;;;;;;27.88;13.80;;;1.20;72.00;;;;;;4998847;28;20045;-64
2021/03/09 07:35:28;;;;;;;25.35;14.15;;;1.30;71.90;;;;;;4998923;28;20034;-63
2021/03/09 07:37:59;;;;;;;25.88;14.13;;;1.30;71.80;;;;;;4998293;28;20448;-64
2021/03/09 07:40:27;;;;;;;27.17;14.20;;;1.40;71.90;;;;;;4997697;28;20034;-63
2021/03/09 07:42:58;;;;;;;25.35;14.50;;;1.50;71.90;;;;;;4999680;28;20034;-64
2021/03/09 07:45:26;;;;;;;26.45;13.55;;;1.60;71.90;;;;;;4999993;28;20032;-64
2021/03/09 07:48:02;;;;;;;30.02;15.73;;;1.70;71.80;;;;;;4998411;28;20039;-63
2021/03/09 07:50:47;;;;;;;28.45;15.80;;;1.70;72.10;;;;;;4997132;28;20065;-63
2021/03/09 07:53:19;;;;;;;29.95;15.77;;;1.80;72.60;;;;;;4997455;28;20498;-64
2021/03/09 07:55:59;;;;;;;32.25;16.95;;;1.90;71.90;;;;;;4998949;28;20513;-63
2021/03/09 07:58:28;;;;;;;28.70;15.68;;;2.00;71.70;;;;;;4998986;28;20046;-64
2021/03/09 08:01:05;;;;;;;30.00;16.42;;;2.00;71.30;;;;;;5003766;28;20037;-64
2021/03/09 08:03:41;;;;;;;31.10;18.13;;;2.10;71.40;;;;;;4993667;28;20496;-64
2021/03/09 08:06:15;;;;;;;28.50;16.90;;;2.10;71.90;;;;;;5006662;28;20401;-64
2021/03/09 08:08:51;;;;;;;29.17;16.67;;;2.20;71.40;;;;;;5003063;28;20034;-64
2021/03/09 08:11:20;;;;;;;28.33;15.70;;;2.20;71.70;;;;;;5001739;28;20590;-64
2021/03/09 08:13:47;;;;;;;27.40;16.50;;;2.30;71.40;;;;;;5002283;28;20026;-65
2021/03/09 08:16:30;;;;;;;28.48;16.17;;;2.30;71.30;;;;;;5005767;28;20034;-64
2021/03/09 08:19:08;;;;;;;27.02;15.45;;;2.40;71.90;;;;;;5000844;28;20049;-64
2021/03/09 08:21:56;;;;;;;30.88;16.27;;;2.50;71.80;;;;;;5002503;28;20034;-64
2021/03/09 08:24:52;;;;;;;28.95;15.15;;;2.50;71.60;;;;;;5000107;28;20109;-65
2021/03/09 08:27:36;;;;;;;33.85;17.38;;;2.60;71.70;;;;;;4998751;28;20038;-65
2021/03/09 08:30:13;;;;;;;30.60;17.73;;;2.70;71.70;;;;;;5001175;28;20041;-64
2021/03/09 08:32:41;;;;;;;29.20;16.58;;;2.70;71.10;;;;;;5001980;28;20121;-64
2021/03/09 08:35:20;;;;;;;31.33;17.88;;;2.70;70.70;;;;;;5002817;28;20124;-64
2021/03/09 08:37:49;;;;;;;30.60;17.20;;;2.70;71.20;;;;;;5000889;28;20117;-64
2021/03/09 08:40:22;;;;;;;28.45;16.88;;;2.80;70.80;;;;;;5015454;28;20038;-64
2021/03/09 08:43:08;;;;;;;32.30;17.15;;;2.80;71.10;;;;;;5000430;28;20121;-65
2021/03/09 08:45:43;;;;;;;30.17;16.80;;;2.80;71.40;;;;;;5002553;28;20041;-64
2021/03/09 08:48:10;;;;;;;27.38;16.20;;;2.90;71.20;;;;;;5003109;28;20034;-64
2021/03/09 08:50:48;;;;;;;29.70;16.48;;;2.90;70.80;;;;;;5006908;28;21957;-64
2021/03/09 08:53:28;;;;;;;27.58;15.63;;;3.00;71.20;;;;;;5002537;28;20134;-64
2021/03/09 08:56:05;;;;;;;28.00;16.50;;;3.10;71.20;;;;;;5002236;28;20387;-64
2021/03/09 08:58:32;;;;;;;29.60;18.23;;;3.10;70.80;;;;;;5001773;28;20041;-64
2021/03/09 09:00:58;;;;;;;28.60;16.73;;;3.10;70.70;;;;;;5002305;28;20038;-64
2021/03/09 09:03:33;;;;;;;28.90;16.02;;;3.20;70.60;;;;;;4999321;28;20038;-64
2021/03/09 09:06:02;;;;;;;27.40;16.55;;;3.20;70.90;;;;;;5001306;28;20038;-64
2021/03/09 09:08:28;;;;;;;31.58;16.63;;;3.20;70.70;;;;;;5001394;28;20046;-65
2021/03/09 09:10:56;;;;;;;29.75;17.73;;;3.30;70.60;;;;;;4999220;28;20039;-64
2021/03/09 09:13:33;;;;;;;29.42;16.67;;;3.40;70.50;;;;;;5001865;28;20117;-63
2021/03/09 09:16:02;;;;;;;30.90;16.02;;;3.40;70.60;;;;;;5001145;28;20073;-64
2021/03/09 09:18:28;;;;;;;30.83;17.20;;;3.50;70.10;;;;;;5000960;28;20593;-63
2021/03/09 09:20:54;;;;;;;31.95;17.17;;;3.50;70.00;;;;;;5001262;28;20160;-63
2021/03/09 09:23:27;;;;;;;32.88;18.17;;;3.50;70.10;;;;;;5001156;28;20544;-64
2021/03/09 09:25:58;;;;;;;32.65;17.75;;;3.60;70.20;;;;;;5002019;28;20423;-64
2021/03/09 09:28:32;;;;;;;28.65;17.27;;;3.60;70.00;;;;;;5005270;28;20034;-65
2021/03/09 09:31:00;;;;;;;29.48;18.05;;;3.60;70.20;;;;;;5016515;28;20506;-64
2021/03/09 09:33:29;;;;;;;34.15;18.60;;;3.70;70.10;;;;;;5001719;28;20518;-63
2021/03/09 09:35:54;;;;;;;28.80;16.05;;;3.70;71.10;;;;;;5001289;28;20125;-64
2021/03/09 09:38:23;;;;;;;29.48;17.85;;;3.70;70.00;;;;;;5001164;28;20116;-64
2021/03/09 09:41:00;;;;;;;28.15;15.88;;;3.70;70.10;;;;;;5001602;28;20042;-64
2021/03/09 09:43:31;;;;;;;26.73;16.42;;;3.80;70.30;;;;;;5000849;28;20038;-64
2021/03/09 09:46:06;;;;;;;31.70;17.23;;;3.90;70.20;;;;;;5001310;28;20045;-64
2021/03/09 09:48:41;;;;;;;29.88;17.02;;;4.00;70.30;;;;;;5001748;28;20104;-64
2021/03/09 09:51:16;;;;;;;30.05;16.88;;;4.10;70.30;;;;;;5002239;28;20053;-63
2021/03/09 09:53:49;;;;;;;29.38;16.92;;;4.20;70.20;;;;;;5016860;28;20568;-64
2021/03/09 09:56:25;;;;;;;28.40;16.67;;;4.20;69.90;;;;;;5000498;28;20041;-64
2021/03/09 09:58:57;;;;;;;27.23;16.55;;;4.30;70.00;;;;;;5000729;28;20493;-64
2021/03/09 10:01:32;;;;;;;30.20;16.50;;;4.40;69.90;;;;;;5001540;28;20034;-64
2021/03/09 10:04:00;;;;;;;;;;;4.50;69.80;;;;;;4999338;28;20115;-64
2021/03/09 10:06:41;;;;;;;27.60;16.15;;;4.60;70.00;;;;;;4999719;28;20380;-64
2021/03/09 10:09:21;;;;;;;29.73;15.50;;;4.60;69.20;;;;;;5001115;28;20042;-64
2021/03/09 10:12:01;;;;;;;26.10;15.73;;;4.70;69.80;;;;;;4999511;28;20040;-64
2021/03/09 10:14:32;;;;;;;27.33;16.27;;;4.80;69.10;;;;;;4998294;28;21259;-65
2021/03/09 10:17:03;;;;;;;27.38;16.77;;;4.80;69.10;;;;;;5001150;28;20061;-64
2021/03/09 10:19:40;;;;;;;31.05;15.57;;;4.90;68.90;;;;;;5001298;28;20034;-64
2021/03/09 10:22:19;;;;;;;25.83;15.52;;;5.00;68.90;;;;;;4999940;28;20038;-64
2021/03/09 10:24:47;;;;;;;28.80;16.45;;;5.00;68.90;;;;;;4999718;28;20529;-64
2021/03/09 10:27:17;;;;;;;30.73;16.70;;;5.10;68.70;;;;;;5000517;28;20513;-64
2021/03/09 10:29:48;;;;;;;27.90;17.15;;;5.20;68.70;;;;;;5000261;28;20026;-64
2021/03/09 10:32:18;;;;;;;27.10;15.98;;;5.30;68.50;;;;;;5002042;28;20038;-64
2021/03/09 10:34:52;;;;;;;27.27;16.30;;;5.30;68.20;;;;;;4999984;28;20125;-64
2021/03/09 10:37:34;;;;;;;27.80;15.98;;;5.40;68.10;;;;;;5000107;28;20031;-64
2021/03/09 10:40:08;;;;;;;26.75;15.60;;;5.40;68.20;;;;;;5000042;28;20054;-64
2021/03/09 10:42:37;;;;;;;26.27;16.55;;;5.50;68.00;;;;;;4999146;28;20034;-64
2021/03/09 10:45:23;;;;;;;27.60;16.35;;;5.50;67.90;;;;;;5100929;27;20413;-63
2021/03/09 10:48:04;;;;;;;29.90;16.83;;;5.60;67.30;;;;;;5068181;28;20029;-63
2021/03/09 10:50:39;;;;;;;26.65;15.95;;;5.60;67.20;;;;;;5071001;28;20025;-63
2021/03/09 10:53:09;;;;;;;24.90;15.13;;;5.60;67.00;;;;;;5057620;28;20111;-62
2021/03/09 10:55:37;;;;;;;29.13;16.00;;;5.60;67.00;;;;;;5071061;28;20033;-62
2021/03/09 10:58:05;;;;;;;25.05;15.23;;;5.60;66.80;;;;;;5068869;28;20115;-62
2021/03/09 11:00:33;;;;;;;27.55;15.70;;;5.60;67.00;;;;;;5070467;28;20751;-63
2021/03/09 11:03:03;;;;;;;23.90;14.90;;;5.60;67.80;;;;;;5057218;28;20056;-63
2021/03/09 11:05:31;;;;;;;25.02;15.73;;;5.60;67.00;;;;;;5074343;28;20511;-63
2021/03/09 11:07:57;;;;;;;26.02;16.50;;;5.70;67.10;;;;;;5072040;28;20078;-63
2021/03/09 11:10:25;;;;;;;27.90;17.30;;;5.70;67.00;;;;;;5066993;28;20655;-64
2021/03/09 11:12:55;;;;;;;27.95;17.23;;;5.70;66.70;;;;;;5073632;28;20016;-63
2021/03/09 11:15:23;;;;;;;27.65;15.63;;;5.70;66.30;;;;;;5074548;28;20025;-63
2021/03/09 11:17:51;;;;;;;23.35;15.02;;;5.80;66.60;;;;;;5072769;28;20020;-63
2021/03/09 11:20:19;;;;;;;22.48;14.25;;;5.80;66.80;;;;;;5073539;28;20034;-62
2021/03/09 11:22:45;;;;;;;22.42;13.98;;;5.90;66.80;;;;;;5073009;28;20025;-63
2021/03/09 11:25:11;;;;;;;21.27;13.85;;;5.90;66.70;;;;;;5073060;28;20032;-63
2021/03/09 11:27:39;;;;;;;26.55;14.50;;;6.00;66.70;;;;;;5073167;28;20033;-63
2021/03/09 11:30:08;;;;;;;21.50;13.57;;;6.10;66.50;;;;;;5072859;28;20407;-63
2021/03/09 11:32:36;;;;;;;19.40;13.00;;;6.20;66.40;;;;;;5074354;28;20020;-62
2021/03/09 11:35:02;;;;;;;21.30;13.90;;;6.40;66.10;;;;;;5070153;28;20061;-63
2021/03/09 11:37:30;;;;;;;20.42;13.10;;;6.50;65.80;;;;;;5070501;28;20091;-63
2021/03/09 11:39:58;;;;;;;19.55;12.20;;;6.60;65.60;;;;;;5071218;28;20114;-65
2021/03/09 11:42:26;;;;;;;17.48;11.45;;;6.70;65.10;;;;;;5070902;28;20033;-65
2021/03/09 11:44:52;;;;;;;15.93;11.13;;;6.80;64.70;;;;;;5071115;28;20295;-65
2021/03/09 11:47:22;;;;;;;17.33;11.73;;;6.90;64.50;;;;;;5072199;28;20037;-65
2021/03/09 11:49:50;;;;;;;16.98;11.63;;;7.00;64.10;;;;;;5071957;28;20033;-65
2021/03/09 11:52:18;;;;;;;17.85;11.98;;;7.10;63.60;;;;;;5055261;28;20032;-62
2021/03/09 11:54:44;;;;;;;16.98;11.93;;;7.20;63.10;;;;;;5069070;28;20032;-62
2021/03/09 11:57:09;;;;;;;18.48;11.98;;;7.30;62.70;;;;;;5058191;28;20527;-62
2021/03/09 11:59:37;;;;;;;18.10;11.90;;;7.40;62.60;;;;;;5058503;28;20035;-62
2021/03/09 12:02:03;;;;;;;17.33;11.65;;;7.50;61.90;;;;;;5058342;28;20033;-63
2021/03/09 12:04:33;;;;;;;17.35;11.15;;;7.50;61.70;;;;;;5057798;28;20388;-63
2021/03/09 12:06:59;;;;;;;16.15;11.20;;;7.60;60.80;;;;;;5058966;28;20120;-62
2021/03/09 12:09:27;;;;;;;18.15;11.77;;;7.70;60.50;;;;;;5058240;28;20465;-62
2021/03/09 12:11:54;;;;;;;17.77;12.05;;;7.80;60.40;;;;;;5055319;28;20132;-62
2021/03/09 12:14:20;;;;;;;17.50;12.07;;;7.80;60.00;;;;;;5058816;28;20037;-62
2021/03/09 12:16:46;;;;;;;16.88;11.88;;;7.90;59.50;;;;;;5054531;28;20056;-62
2021/03/09 12:19:18;;;;;;;16.35;12.30;;;8.00;59.30;;;;;;5053656;28;20555;-62
2021/03/09 12:21:46;;;;;;;19.33;12.80;;;8.10;59.10;;;;;;5059898;28;20046;-62
2021/03/09 12:24:14;;;;;;;17.38;12.70;;;8.10;59.30;;;;;;5055930;28;20033;-62
2021/03/09 12:26:40;;;;;;;19.63;13.18;;;8.20;59.10;;;;;;5059050;28;20216;-62
2021/03/09 12:29:08;;;;;;;23.73;13.93;;;8.20;58.60;;;;;;5058470;28;20113;-62
2021/03/09 12:31:34;;;;;;;20.13;14.18;;;8.20;58.00;;;;;;5057714;28;20032;-63
2021/03/09 12:34:04;;;;;;;19.20;13.60;;;8.20;57.70;;;;;;5058895;28;20075;-61
2021/03/09 12:36:34;;;;;;;25.13;15.30;;;8.20;57.10;;;;;;5053552;28;20041;-62
2021/03/09 12:39:03;;;;;;;22.60;15.43;;;8.20;56.80;;;;;;5058367;28;20033;-62
2021/03/09 12:41:28;;;;;;;18.90;13.95;;;8.30;56.50;;;;;;5056378;28;20458;-62
2021/03/09 12:43:54;;;;;;;18.98;13.63;;;8.30;56.60;;;;;;5054673;28;20123;-62
2021/03/09 12:46:22;;;;;;;18.30;13.00;;;8.30;56.50;;;;;;5056570;28;20056;-62
2021/03/09 12:48:50;;;;;;;19.15;13.10;;;8.30;56.40;;;;;;5056889;28;20029;-62
2021/03/09 12:51:15;;;;;;;17.90;12.75;;;8.30;56.40;;;;;;5057046;28;20029;-62
2021/03/09 12:53:41;;;;;;;18.65;13.07;;;8.40;56.20;;;;;;5055384;28;20083;-62
2021/03/09 12:56:09;;;;;;;19.60;13.10;;;8.40;56.10;;;;;;5062440;28;20045;-62
2021/03/09 12:58:35;;;;;;;19.45;13.35;;;8.40;55.60;;;;;;5055924;28;20597;-63
2021/03/09 13:01:03;;;;;;;18.23;13.68;;;8.40;55.80;;;;;;5056692;28;20544;-63